Time;durP1;ratioP1;P1;durP2;ratioP2;P2;SDS_P1;SDS_P2;PMS_P1;PMS_P2;Temp;Humidity;BMP_temperature;BMP_pressure;BME280_temperature;BME280_humidity;BME280_pressure;Samples;Min_cycle;Max_cycle;Signal;HPM_P1;HPM_P2
2023/01/02 00:00:27;;;;;;;14.07;9.80;;;11.20;99.90;;;;;;5001710;28;20053;-77
2023/01/02 00:02:54;;;;;;;19.33;10.15;;;11.30;99.90;;;;;;4995569;28;20043;-78
2023/01/02 00:05:21;;;;;;;11.27;10.13;;;11.30;99.90;;;;;;4999233;28;20053;-77
2023/01/02 00:07:48;;;;;;;12.40;9.45;;;11.30;99.90;;;;;;4984366;28;20046;-76
2023/01/02 00:10:14;;;;;;;12.88;10.45;;;11.30;99.90;;;;;;5004075;28;20411;-78
2023/01/02 00:12:41;;;;;;;12.30;9.85;;;11.30;99.90;;;;;;4989188;28;20057;-77
2023/01/02 00:15:08;;;;;;;19.67;10.38;;;11.30;99.90;;;;;;5023180;28;20084;-78
2023/01/02 00:17:35;;;;;;;17.95;10.32;;;11.30;99.90;;;;;;4998299;28;20053;-77
2023/01/02 00:20:02;;;;;;;15.52;10.52;;;11.30;99.90;;;;;;4997791;28;20515;-77
2023/01/02 00:22:29;;;;;;;16.75;10.95;;;11.30;99.90;;;;;;4988859;28;20069;-77
2023/01/02 00:24:56;;;;;;;15.75;10.57;;;11.30;99.90;;;;;;5015952;28;20046;-77
2023/01/02 00:27:22;;;;;;;13.23;10.52;;;11.30;99.90;;;;;;4996345;28;20045;-78
2023/01/02 00:29:49;;;;;;;14.05;10.88;;;11.40;99.90;;;;;;4977892;28;20053;-77
2023/01/02 00:32:16;;;;;;;15.95;11.38;;;11.30;99.90;;;;;;5001186;28;20066;-77
2023/01/02 00:34:43;;;;;;;17.05;12.15;;;11.30;99.90;;;;;;4978192;28;20050;-78
2023/01/02 00:37:09;;;;;;;15.35;11.45;;;11.30;99.90;;;;;;4996572;28;20133;-77
2023/01/02 00:39:36;;;;;;;14.27;10.90;;;11.30;99.90;;;;;;4991706;28;20050;-76
2023/01/02 00:42:03;;;;;;;14.32;10.48;;;11.30;99.90;;;;;;4996701;28;20049;-76
2023/01/02 00:44:30;;;;;;;16.45;11.20;;;11.30;99.90;;;;;;4998455;28;20045;-77
2023/01/02 00:46:56;;;;;;;12.10;10.77;;;11.30;99.90;;;;;;5011128;28;20129;-76
2023/01/02 00:49:23;;;;;;;14.35;11.73;;;11.40;99.90;;;;;;4986020;28;20134;-77
2023/01/02 00:51:50;;;;;;;18.90;11.45;;;11.40;99.90;;;;;;4994883;28;20042;-76
2023/01/02 00:54:17;;;;;;;14.70;10.52;;;11.40;99.90;;;;;;4992402;28;20073;-76
2023/01/02 00:56:43;;;;;;;13.02;10.90;;;11.40;99.90;;;;;;5016030;28;20122;-76
2023/01/02 00:59:10;;;;;;;17.55;11.45;;;11.50;99.90;;;;;;5004494;28;20050;-76
2023/01/02 01:01:37;;;;;;;16.17;11.75;;;11.50;99.90;;;;;;4985289;28;20132;-77
2023/01/02 01:04:04;;;;;;;17.98;11.80;;;11.50;99.90;;;;;;5001993;28;20053;-76
2023/01/02 01:06:32;;;;;;;14.55;11.43;;;11.50;99.90;;;;;;4989507;28;20296;-77
2023/01/02 01:08:59;;;;;;;19.40;11.55;;;11.50;99.90;;;;;;4987099;28;20043;-76
2023/01/02 01:11:28;;;;;;;19.90;12.05;;;11.40;99.90;;;;;;4999128;28;20503;-76
2023/01/02 01:13:56;;;;;;;14.50;11.48;;;11.40;99.90;;;;;;5002787;28;20046;-76
2023/01/02 01:16:24;;;;;;;15.75;11.63;;;11.50;99.90;;;;;;5003308;28;20334;-76
2023/01/02 01:18:55;;;;;;;19.63;12.07;;;11.50;99.90;;;;;;5012178;28;20049;-76
2023/01/02 01:21:22;;;;;;;14.63;12.25;;;11.50;99.90;;;;;;4990780;28;20057;-76
2023/01/02 01:23:53;;;;;;;21.65;12.13;;;11.50;99.90;;;;;;4994899;28;20054;-75
2023/01/02 01:26:22;;;;;;;13.77;11.48;;;11.50;99.90;;;;;;4992803;28;20046;-77
2023/01/02 01:28:52;;;;;;;11.88;10.52;;;11.40;99.90;;;;;;4996534;28;20048;-76
2023/01/02 01:31:19;;;;;;;17.25;13.20;;;11.50;99.90;;;;;;4977684;28;20583;-77
2023/01/02 01:33:46;;;;;;;22.02;12.15;;;11.40;99.90;;;;;;4979555;28;20416;-76
2023/01/02 01:36:16;;;;;;;16.30;12.15;;;11.50;99.90;;;;;;4996658;28;20056;-76
2023/01/02 01:38:43;;;;;;;16.50;11.35;;;11.50;99.90;;;;;;5009983;28;20054;-76
2023/01/02 01:41:17;;;;;;;13.77;11.82;;;11.50;99.90;;;;;;4993658;28;20042;-77
2023/01/02 01:43:49;;;;;;;18.88;13.05;;;11.40;99.90;;;;;;4991047;28;20349;-76
2023/01/02 01:46:46;;;;;;;17.73;12.77;;;11.50;99.90;;;;;;5001563;28;20050;-76
2023/01/02 01:49:25;;;;;;;14.35;12.93;;;11.60;99.90;;;;;;4990306;28;20085;-76
2023/01/02 01:51:57;;;;;;;20.48;14.30;;;11.50;99.90;;;;;;4996760;28;20753;-77
2023/01/02 01:54:35;;;;;;;16.73;15.00;;;11.50;99.90;;;;;;5003965;28;20136;-76
2023/01/02 01:57:09;;;;;;;17.67;13.05;;;11.60;99.90;;;;;;4991141;28;20132;-77
2023/01/02 01:59:36;;;;;;;19.15;13.27;;;11.60;99.90;;;;;;5005595;28;20057;-76
2023/01/02 02:02:02;;;;;;;17.52;13.50;;;11.60;99.90;;;;;;5001019;28;20132;-76
2023/01/02 02:04:29;;;;;;;14.80;13.30;;;11.60;99.90;;;;;;4982317;28;20056;-77
2023/01/02 02:06:56;;;;;;;14.60;13.23;;;11.60;99.90;;;;;;5001118;28;20052;-77
2023/01/02 02:09:26;;;;;;;18.00;14.07;;;11.60;99.90;;;;;;5001259;28;20507;-77
2023/01/02 02:11:54;;;;;;;14.95;13.52;;;11.60;99.90;;;;;;5005887;28;20050;-76
2023/01/02 02:14:21;;;;;;;16.55;14.95;;;11.70;99.90;;;;;;4999177;28;20588;-77
2023/01/02 02:17:22;;;;;;;14.55;13.13;;;11.70;99.90;;;;;;4998458;28;20069;-77
2023/01/02 02:20:17;;;;;;;16.83;15.15;;;11.70;99.90;;;;;;4985032;28;20468;-77
2023/01/02 02:23:14;;;;;;;19.33;14.85;;;11.80;99.90;;;;;;4995467;28;20062;-77
2023/01/02 02:26:00;;;;;;;15.63;14.27;;;11.80;99.90;;;;;;4979914;28;20506;-76
2023/01/02 02:28:49;;;;;;;18.02;15.20;;;11.80;99.90;;;;;;4995002;28;20112;-76
2023/01/02 02:31:31;;;;;;;16.38;14.65;;;11.80;99.90;;;;;;5003346;28;20049;-77
2023/01/02 02:34:01;;;;;;;16.30;14.63;;;11.80;99.90;;;;;;5027948;28;20054;-77
2023/01/02 02:36:42;;;;;;;22.52;15.70;;;11.80;99.90;;;;;;4998307;28;20046;-77
2023/01/02 02:39:33;;;;;;;16.60;14.73;;;11.70;99.90;;;;;;4998157;28;20052;-77
2023/01/02 02:42:30;;;;;;;17.10;15.63;;;11.80;99.90;;;;;;4998812;28;20068;-76
2023/01/02 02:45:14;;;;;;;16.98;15.57;;;11.80;99.90;;;;;;4956469;28;20080;-76
2023/01/02 02:48:04;;;;;;;18.20;15.85;;;11.80;99.90;;;;;;4980053;28;20614;-76
2023/01/02 02:50:41;;;;;;;19.35;17.30;;;11.70;99.90;;;;;;4995852;28;20049;-76
2023/01/02 02:53:17;;;;;;;16.58;14.80;;;11.70;99.90;;;;;;5009332;28;20052;-76
2023/01/02 02:55:49;;;;;;;16.90;15.30;;;11.70;99.90;;;;;;4998805;28;20041;-76
2023/01/02 02:58:18;;;;;;;16.02;14.73;;;11.70;99.90;;;;;;5000750;28;20059;-76
2023/01/02 03:00:45;;;;;;;20.02;16.50;;;11.70;99.90;;;;;;4995327;28;20052;-77
2023/01/02 03:03:21;;;;;;;17.90;16.10;;;11.70;99.90;;;;;;4999089;28;20046;-76
2023/01/02 03:06:14;;;;;;;17.10;15.15;;;11.70;99.90;;;;;;5005353;28;20050;-76
2023/01/02 03:09:16;;;;;;;17.70;15.52;;;11.70;99.90;;;;;;5004942;28;20053;-76
2023/01/02 03:12:17;;;;;;;17.15;15.27;;;11.70;99.90;;;;;;4979351;28;20038;-76
2023/01/02 03:15:02;;;;;;;18.17;16.60;;;11.70;99.90;;;;;;4993363;28;20721;-76
2023/01/02 03:17:55;;;;;;;17.77;14.13;;;11.60;99.90;;;;;;4992639;28;20049;-77
2023/01/02 03:20:27;;;;;;;16.05;14.52;;;11.60;99.90;;;;;;4975084;28;20129;-77
2023/01/02 03:23:00;;;;;;;16.55;14.90;;;11.60;99.90;;;;;;5022524;28;20499;-76
2023/01/02 03:25:27;;;;;;;22.00;16.30;;;11.60;99.90;;;;;;4993328;28;20049;-77
2023/01/02 03:27:57;;;;;;;17.60;15.27;;;11.50;99.90;;;;;;4998261;28;20128;-76
2023/01/02 03:30:24;;;;;;;16.02;14.63;;;11.50;99.90;;;;;;5003683;28;20510;-76
2023/01/02 03:33:07;;;;;;;17.00;15.50;;;11.50;99.90;;;;;;4996004;28;20054;-76
2023/01/02 03:35:48;;;;;;;15.88;14.38;;;11.50;99.90;;;;;;4995519;28;20095;-76
2023/01/02 03:38:23;;;;;;;17.27;15.45;;;11.50;99.90;;;;;;4999355;28;20358;-76
2023/01/02 03:40:55;;;;;;;;;;;11.50;99.90;;;;;;4995555;28;20045;-76
2023/01/02 03:43:28;;;;;;;16.95;15.40;;;11.60;99.90;;;;;;4997928;28;20140;-76
2023/01/02 03:46:16;;;;;;;17.10;15.55;;;11.60;99.90;;;;;;5010604;28;20034;-76
2023/01/02 03:48:50;;;;;;;16.38;14.75;;;11.60;99.90;;;;;;5018566;28;20547;-76
2023/01/02 03:51:17;;;;;;;19.08;16.65;;;11.60;99.90;;;;;;4995494;28;20048;-76
2023/01/02 03:53:44;;;;;;;20.50;15.32;;;11.60;99.90;;;;;;4994618;28;20053;-76
2023/01/02 03:56:21;;;;;;;17.70;14.95;;;11.70;99.90;;;;;;4998432;28;20261;-76
2023/01/02 03:59:05;;;;;;;17.02;15.30;;;11.80;99.90;;;;;;4999044;28;20056;-76
2023/01/02 04:01:38;;;;;;;17.15;15.45;;;11.70;99.90;;;;;;4994730;28;20414;-76
2023/01/02 04:04:17;;;;;;;18.23;16.33;;;11.80;99.90;;;;;;4996737;28;20116;-77
2023/01/02 04:06:49;;;;;;;17.13;15.40;;;11.70;99.90;;;;;;4996598;28;20114;-78
2023/01/02 04:09:20;;;;;;;16.95;15.52;;;11.70;99.90;;;;;;4995421;28;20048;-77
2023/01/02 04:11:54;;;;;;;17.00;15.15;;;11.70;99.90;;;;;;4996200;28;20034;-76
2023/01/02 04:14:30;;;;;;;17.90;16.38;;;11.80;99.90;;;;;;5013766;28;20108;-76
2023/01/02 04:16:59;;;;;;;18.88;15.20;;;11.70;99.90;;;;;;5024306;28;20072;-77
2023/01/02 04:19:34;;;;;;;16.23;14.45;;;11.70;99.90;;;;;;5022430;28;20056;-76
2023/01/02 04:22:06;;;;;;;23.83;15.50;;;11.70;99.90;;;;;;5019182;28;20042;-76
2023/01/02 04:24:39;;;;;;;17.38;15.82;;;11.60;99.90;;;;;;5007026;28;20042;-76
2023/01/02 04:27:12;;;;;;;19.63;14.70;;;11.60;99.90;;;;;;4986785;28;20124;-76
2023/01/02 04:29:40;;;;;;;17.40;15.70;;;11.60;99.90;;;;;;4998293;28;20137;-77
2023/01/02 04:32:14;;;;;;;18.92;15.82;;;11.60;99.90;;;;;;4998857;28;20046;-77
2023/01/02 04:34:42;;;;;;;16.58;15.02;;;11.60;99.90;;;;;;4983882;28;20116;-77
2023/01/02 04:37:09;;;;;;;17.38;15.57;;;11.60;99.90;;;;;;5002161;28;20042;-76
2023/01/02 04:39:36;;;;;;;17.15;15.18;;;11.60;99.90;;;;;;5010936;28;20082;-77
2023/01/02 04:42:03;;;;;;;18.50;15.48;;;11.50;99.90;;;;;;4990385;28;20503;-76
2023/01/02 04:44:30;;;;;;;16.83;15.30;;;11.60;99.90;;;;;;4998000;28;20562;-76
2023/01/02 04:46:56;;;;;;;17.67;15.90;;;11.50;99.90;;;;;;5002173;28;20125;-76
2023/01/02 04:49:25;;;;;;;16.60;14.68;;;11.50;99.90;;;;;;4992396;28;20560;-77
2023/01/02 04:51:52;;;;;;;17.02;14.95;;;11.50;99.90;;;;;;4999032;28;20038;-76
2023/01/02 04:54:19;;;;;;;16.52;15.05;;;11.40;99.90;;;;;;5001814;28;20046;-76
2023/01/02 04:56:46;;;;;;;16.83;15.23;;;11.40;99.90;;;;;;4986341;28;20072;-76
2023/01/02 04:59:12;;;;;;;16.92;15.43;;;11.40;99.90;;;;;;5009989;28;20053;-76
2023/01/02 05:01:39;;;;;;;16.38;14.82;;;11.40;99.90;;;;;;4995633;28;20041;-77
2023/01/02 05:04:06;;;;;;;21.00;15.20;;;11.40;99.90;;;;;;5000828;28;20077;-76
2023/01/02 05:06:33;;;;;;;17.90;16.23;;;11.40;99.90;;;;;;4999664;28;20045;-77
2023/01/02 05:09:00;;;;;;;17.48;15.65;;;11.40;99.90;;;;;;4994182;28;20045;-77
2023/01/02 05:11:26;;;;;;;19.65;14.82;;;11.40;99.90;;;;;;4998212;28;20034;-77
2023/01/02 05:13:53;;;;;;;18.95;16.15;;;11.40;99.90;;;;;;5001235;28;20085;-76
2023/01/02 05:16:19;;;;;;;19.23;16.08;;;11.40;99.90;;;;;;5015343;28;20045;-78
2023/01/02 05:18:46;;;;;;;22.77;15.25;;;11.40;99.90;;;;;;5000179;28;20042;-77
2023/01/02 05:24:02;;;;;;;18.08;16.48;;;11.40;99.90;;;;;;4996213;28;20077;-77
2023/01/02 05:26:32;;;;;;;17.60;16.10;;;11.40;99.90;;;;;;5013659;28;20042;-77
2023/01/02 05:28:59;;;;;;;17.27;15.80;;;11.50;99.90;;;;;;5012290;28;20050;-76
2023/01/02 05:31:26;;;;;;;17.77;16.15;;;11.40;99.90;;;;;;5009539;28;20062;-79
2023/01/02 05:33:55;;;;;;;16.55;15.32;;;11.50;99.90;;;;;;5011713;28;20488;-77
2023/01/02 05:36:23;;;;;;;17.73;15.93;;;11.40;99.90;;;;;;5003703;28;20060;-77
2023/01/02 05:38:51;;;;;;;17.45;15.65;;;11.50;99.90;;;;;;5023468;28;20681;-76
2023/01/02 05:41:19;;;;;;;20.05;16.45;;;11.50;99.90;;;;;;4999623;28;20170;-77
2023/01/02 05:43:46;;;;;;;17.55;15.80;;;11.50;99.90;;;;;;4999515;28;20073;-78
2023/01/02 05:46:17;;;;;;;17.08;14.38;;;11.50;99.90;;;;;;4986016;28;20056;-77
2023/01/02 05:48:45;;;;;;;16.40;14.85;;;11.50;99.90;;;;;;4982531;28;20110;-77
2023/01/02 05:51:14;;;;;;;15.95;14.55;;;11.70;99.90;;;;;;4982804;28;20043;-76
2023/01/02 05:53:41;;;;;;;15.15;13.75;;;11.90;99.90;;;;;;4996358;28;20042;-77
2023/01/02 05:56:13;;;;;;;14.95;13.43;;;12.10;99.90;;;;;;5000381;28;20139;-77
2023/01/02 05:58:42;;;;;;;20.33;14.88;;;12.10;99.90;;;;;;5010882;28;20087;-77
2023/01/02 06:01:13;;;;;;;14.88;13.45;;;12.10;99.90;;;;;;4999762;28;20041;-77
2023/01/02 06:03:44;;;;;;;14.60;13.18;;;12.00;99.90;;;;;;4998237;28;20423;-78
2023/01/02 06:06:11;;;;;;;14.48;13.07;;;12.10;99.90;;;;;;5005305;28;20042;-77
2023/01/02 06:08:39;;;;;;;13.90;12.77;;;12.10;99.90;;;;;;4998023;28;20046;-78
2023/01/02 06:11:06;;;;;;;13.88;12.77;;;12.20;99.90;;;;;;4995674;28;20042;-77
2023/01/02 06:13:35;;;;;;;14.60;13.10;;;12.40;99.90;;;;;;5010707;28;20065;-78
2023/01/02 06:16:03;;;;;;;15.07;13.40;;;12.60;99.90;;;;;;4983976;28;20060;-77
2023/01/02 06:18:31;;;;;;;14.45;13.20;;;12.60;99.90;;;;;;4998303;28;20132;-77
2023/01/02 06:21:03;;;;;;;13.65;12.63;;;12.60;99.90;;;;;;4996928;28;20050;-77
2023/01/02 06:23:30;;;;;;;15.93;14.27;;;12.80;99.90;;;;;;4997844;28;20061;-77
2023/01/02 06:26:05;;;;;;;14.00;12.15;;;12.80;99.90;;;;;;5010627;28;20121;-78
2023/01/02 06:28:32;;;;;;;21.38;11.57;;;12.90;99.90;;;;;;4995265;28;20058;-77
2023/01/02 06:31:03;;;;;;;15.07;11.98;;;12.90;99.90;;;;;;4998405;28;20049;-77
2023/01/02 06:33:30;;;;;;;11.40;10.38;;;12.90;99.90;;;;;;4998155;28;20129;-78
2023/01/02 06:36:06;;;;;;;17.25;11.48;;;13.00;99.90;;;;;;4977846;28;20129;-77
2023/01/02 06:38:33;;;;;;;11.85;10.90;;;13.00;99.90;;;;;;5030202;28;20138;-77
2023/01/02 06:41:01;;;;;;;13.43;12.05;;;13.00;99.90;;;;;;4998753;28;20357;-77
2023/01/02 06:43:29;;;;;;;14.65;13.30;;;13.00;99.90;;;;;;4984540;28;20058;-78
2023/01/02 06:46:00;;;;;;;14.98;13.65;;;13.00;99.90;;;;;;4984732;28;20038;-77
2023/01/02 06:48:27;;;;;;;14.00;12.93;;;13.00;99.90;;;;;;5001129;28;20057;-77
2023/01/02 06:50:54;;;;;;;16.70;13.85;;;13.00;99.90;;;;;;5013492;28;20042;-77
2023/01/02 06:53:21;;;;;;;15.90;13.40;;;13.10;99.90;;;;;;5000849;28;20073;-77
2023/01/02 06:55:56;;;;;;;15.68;14.32;;;13.00;99.90;;;;;;4998740;28;20410;-78
2023/01/02 06:58:23;;;;;;;13.48;12.48;;;12.90;99.90;;;;;;5001248;28;20151;-78
2023/01/02 07:00:50;;;;;;;16.95;13.27;;;13.00;99.90;;;;;;4981065;28;20092;-77
2023/01/02 07:03:17;;;;;;;14.25;12.95;;;13.00;99.90;;;;;;4995720;28;20490;-77
2023/01/02 07:05:44;;;;;;;19.05;14.23;;;12.90;99.90;;;;;;4981967;28;20065;-78
2023/01/02 07:08:12;;;;;;;14.63;13.13;;;12.90;99.90;;;;;;5000676;28;20802;-77
2023/01/02 07:10:38;;;;;;;21.05;14.15;;;12.90;99.90;;;;;;5021796;28;20507;-77
2023/01/02 07:13:05;;;;;;;18.00;15.48;;;12.90;99.90;;;;;;4994232;28;20498;-77
2023/01/02 07:15:32;;;;;;;20.45;16.30;;;12.90;99.90;;;;;;5005208;28;20542;-78
2023/01/02 07:17:59;;;;;;;17.90;14.48;;;12.80;99.90;;;;;;4988187;28;20057;-77
2023/01/02 07:20:25;;;;;;;16.60;14.98;;;12.80;99.90;;;;;;4997762;28;20129;-76
2023/01/02 07:22:53;;;;;;;16.90;13.63;;;12.80;99.90;;;;;;4996531;28;20565;-77
2023/01/02 07:25:21;;;;;;;16.33;13.75;;;12.70;99.90;;;;;;4998190;28;20479;-78
2023/01/02 07:27:47;;;;;;;15.73;12.80;;;12.70;99.90;;;;;;4997132;28;20125;-77
2023/01/02 07:30:15;;;;;;;13.25;12.15;;;12.70;99.90;;;;;;4997743;28;20119;-77
2023/01/02 07:32:42;;;;;;;12.80;11.85;;;12.70;99.90;;;;;;4983821;28;20418;-77
2023/01/02 07:35:09;;;;;;;15.18;12.88;;;12.70;99.90;;;;;;4998916;28;20069;-77
2023/01/02 07:37:37;;;;;;;16.52;14.95;;;12.70;99.90;;;;;;4997972;28;20041;-77
2023/01/02 07:40:04;;;;;;;15.13;13.90;;;12.80;99.90;;;;;;5033269;28;20049;-77
2023/01/02 07:42:31;;;;;;;19.58;14.02;;;12.80;99.90;;;;;;4997740;28;20060;-79
2023/01/02 07:44:58;;;;;;;15.85;14.55;;;12.80;99.90;;;;;;5009941;28;20123;-78
2023/01/02 07:47:24;;;;;;;14.45;13.25;;;12.70;99.90;;;;;;4984254;28;20133;-78
2023/01/02 07:49:51;;;;;;;15.02;13.75;;;12.60;99.90;;;;;;5026018;28;20124;-78
2023/01/02 07:52:18;;;;;;;13.90;12.65;;;12.70;99.90;;;;;;5011571;28;20133;-76
2023/01/02 07:54:44;;;;;;;15.02;13.75;;;12.60;99.90;;;;;;4997512;28;20545;-78
2023/01/02 07:57:11;;;;;;;16.88;15.48;;;12.60;99.90;;;;;;5003978;28;20052;-78
2023/01/02 07:59:38;;;;;;;18.50;16.08;;;12.60;99.90;;;;;;4996908;28;20084;-78
2023/01/02 08:02:05;;;;;;;16.80;15.43;;;12.60;99.90;;;;;;4998371;28;20050;-77
2023/01/02 08:04:32;;;;;;;16.73;15.25;;;12.60;99.90;;;;;;4981194;28;20077;-80
2023/01/02 08:07:01;;;;;;;17.42;16.02;;;12.60;99.90;;;;;;4973683;28;20042;-78
2023/01/02 08:09:32;;;;;;;23.85;22.48;;;12.70;99.90;;;;;;4980870;28;20454;-78
2023/01/02 08:11:59;;;;;;;24.10;22.58;;;12.70;99.90;;;;;;4999547;28;20042;-77
2023/01/02 08:14:26;;;;;;;24.52;22.77;;;12.60;99.90;;;;;;4978115;28;20060;-77
2023/01/02 08:16:53;;;;;;;25.08;23.40;;;12.70;99.90;;;;;;4998247;28;20045;-78
2023/01/02 08:19:19;;;;;;;25.42;23.70;;;12.60;99.90;;;;;;5007156;28;20464;-77
2023/01/02 08:21:46;;;;;;;25.42;23.42;;;12.60;99.90;;;;;;4998344;28;20046;-77
2023/01/02 08:24:13;;;;;;;24.67;23.02;;;12.60;99.90;;;;;;5022537;28;20309;-77
2023/01/02 08:26:39;;;;;;;25.02;23.35;;;12.60;99.90;;;;;;5002102;28;20114;-77
2023/01/02 08:29:08;;;;;;;25.88;23.63;;;12.50;99.90;;;;;;5000569;28;20038;-77
2023/01/02 08:31:35;;;;;;;24.25;22.80;;;12.60;99.90;;;;;;5022590;28;20042;-78
2023/01/02 08:34:13;;;;;;;25.13;23.55;;;12.60;99.90;;;;;;5031566;28;20053;-77
2023/01/02 08:36:40;;;;;;;24.83;22.88;;;12.50;99.90;;;;;;5007844;28;20141;-78
2023/01/02 08:39:07;;;;;;;23.98;21.98;;;12.60;99.90;;;;;;4991274;28;20062;-77
2023/01/02 08:41:39;;;;;;;23.92;21.83;;;12.60;99.90;;;;;;4987208;28;20068;-77
2023/01/02 08:44:06;;;;;;;25.63;21.90;;;12.60;99.90;;;;;;4992449;28;20053;-77
2023/01/02 08:46:34;;;;;;;23.83;22.02;;;12.60;99.90;;;;;;5001074;28;20105;-77
2023/01/02 08:49:08;;;;;;;23.52;21.67;;;12.60;99.90;;;;;;4987944;28;20607;-77
2023/01/02 08:51:35;;;;;;;25.35;23.42;;;12.60;99.90;;;;;;4990240;28;20050;-78
2023/01/02 08:54:02;;;;;;;24.48;22.77;;;12.60;99.90;;;;;;5002856;28;20046;-78
2023/01/02 08:56:31;;;;;;;24.55;22.85;;;12.60;99.90;;;;;;4994242;28;20048;-77
2023/01/02 08:59:04;;;;;;;25.02;22.98;;;12.60;99.90;;;;;;4983509;28;20093;-77
2023/01/02 09:01:32;;;;;;;23.80;21.73;;;12.60;99.90;;;;;;4969164;28;20476;-78
2023/01/02 09:04:00;;;;;;;23.52;21.83;;;12.60;99.90;;;;;;5004236;28;20069;-77
2023/01/02 09:06:37;;;;;;;23.20;21.70;;;12.60;99.90;;;;;;4982578;28;20129;-78
2023/01/02 09:09:04;;;;;;;24.48;22.10;;;12.70;99.90;;;;;;5021856;28;20042;-79
2023/01/02 09:11:50;;;;;;;23.77;21.83;;;12.70;99.90;;;;;;5007730;28;20070;-77
2023/01/02 09:14:18;;;;;;;23.70;21.83;;;12.70;99.90;;;;;;5004989;28;20133;-79
2023/01/02 09:16:46;;;;;;;23.50;21.75;;;12.60;99.90;;;;;;4996093;28;20085;-76
2023/01/02 09:19:13;;;;;;;22.63;21.13;;;12.70;99.90;;;;;;5002538;28;20129;-78
2023/01/02 09:21:40;;;;;;;23.45;21.67;;;12.80;99.90;;;;;;5004334;28;20170;-78
2023/01/02 09:24:08;;;;;;;25.15;22.75;;;12.80;99.90;;;;;;4993068;28;20543;-77
2023/01/02 09:26:36;;;;;;;24.35;22.38;;;12.80;99.90;;;;;;4981960;28;20614;-77
2023/01/02 09:29:04;;;;;;;24.00;22.10;;;12.80;99.90;;;;;;4990883;28;20050;-76
2023/01/02 09:31:31;;;;;;;23.73;22.17;;;12.80;99.90;;;;;;5003157;28;20053;-77
2023/01/02 09:33:58;;;;;;;22.70;21.15;;;12.80;99.90;;;;;;4999335;28;20104;-77
2023/01/02 09:36:25;;;;;;;23.08;21.38;;;12.80;99.90;;;;;;4991400;28;20046;-77
2023/01/02 09:38:53;;;;;;;23.35;21.73;;;12.80;99.90;;;;;;4998708;28;20697;-77
2023/01/02 09:41:20;;;;;;;24.17;22.20;;;12.80;99.90;;;;;;5011501;28;20043;-77
2023/01/02 09:43:52;;;;;;;21.42;20.35;;;12.80;99.90;;;;;;4994999;28;20038;-76
2023/01/02 09:46:38;;;;;;;24.77;22.75;;;12.80;99.90;;;;;;5003517;28;20050;-77
2023/01/02 09:49:08;;;;;;;24.08;22.08;;;12.80;99.90;;;;;;4996939;28;20064;-77
2023/01/02 09:51:35;;;;;;;24.02;22.02;;;12.80;99.90;;;;;;5007253;28;20087;-76
2023/01/02 09:54:05;;;;;;;23.48;21.90;;;12.80;99.90;;;;;;5015699;28;20052;-77
2023/01/02 09:56:42;;;;;;;19.08;17.45;;;12.80;99.90;;;;;;4997794;28;20037;-77
2023/01/02 09:59:32;;;;;;;17.10;15.70;;;12.80;99.90;;;;;;5010725;28;20137;-76
2023/01/02 10:02:06;;;;;;;26.63;16.17;;;12.70;99.90;;;;;;4994516;28;20064;-77
2023/01/02 10:04:54;;;;;;;19.83;16.67;;;12.60;99.90;;;;;;4985909;28;20065;-77
2023/01/02 10:07:48;;;;;;;14.88;13.38;;;12.10;99.90;;;;;;4990635;28;20038;-77
2023/01/02 10:10:34;;;;;;;19.85;12.05;;;11.70;99.90;;;;;;4988468;28;20050;-78
2023/01/02 10:13:19;;;;;;;18.80;9.60;;;11.30;99.90;;;;;;4983089;28;20058;-78
2023/01/02 10:15:49;;;;;;;13.80;8.10;;;11.10;99.90;;;;;;5001601;28;20038;-78
2023/01/02 10:18:15;;;;;;;15.30;8.00;;;11.00;99.90;;;;;;5023459;28;20068;-78
2023/01/02 10:20:47;;;;;;;13.80;7.30;;;10.90;99.90;;;;;;4982149;28;20038;-76
2023/01/02 10:23:21;;;;;;;12.45;7.25;;;10.70;99.90;;;;;;4996952;28;20056;-78
2023/01/02 10:25:54;;;;;;;20.27;6.80;;;10.70;99.90;;;;;;5024652;28;20052;-79
2023/01/02 10:28:33;;;;;;;21.50;7.03;;;10.50;99.90;;;;;;5010354;28;20054;-78
2023/01/02 10:31:15;;;;;;;16.98;6.88;;;10.50;99.90;;;;;;4996394;28;20053;-78
2023/01/02 10:33:58;;;;;;;14.80;8.30;;;10.40;99.90;;;;;;5008263;28;20457;-77
2023/01/02 10:36:34;;;;;;;15.50;8.00;;;10.40;99.90;;;;;;5010210;28;20639;-78
2023/01/02 10:39:04;;;;;;;15.00;6.93;;;10.40;99.90;;;;;;4990963;28;20054;-78
2023/01/02 10:41:35;;;;;;;14.85;6.97;;;10.40;99.90;;;;;;5012185;28;20042;-77
2023/01/02 10:44:07;;;;;;;7.47;6.07;;;10.50;99.90;;;;;;4999475;28;20080;-78
2023/01/02 10:46:36;;;;;;;17.80;6.18;;;10.50;99.90;;;;;;4991359;28;20049;-77
2023/01/02 10:49:05;;;;;;;9.82;6.05;;;10.50;99.90;;;;;;5019569;28;20042;-78
2023/01/02 10:51:34;;;;;;;12.50;5.60;;;10.60;99.90;;;;;;5013296;28;20137;-77
2023/01/02 10:54:04;;;;;;;9.80;5.63;;;10.50;99.90;;;;;;5003707;28;20073;-78
2023/01/02 10:56:33;;;;;;;14.05;6.07;;;10.60;99.90;;;;;;5004988;28;20077;-79
2023/01/02 10:59:01;;;;;;;13.10;6.10;;;10.60;99.90;;;;;;5003939;28;20046;-78
2023/01/02 11:01:28;;;;;;;6.32;5.65;;;10.60;99.90;;;;;;4980634;28;20595;-79
2023/01/02 11:03:56;;;;;;;8.60;4.90;;;10.60;99.90;;;;;;5024231;28;20045;-78
2023/01/02 11:06:32;;;;;;;12.63;7.10;;;10.60;99.90;;;;;;4997581;28;20078;-78
2023/01/02 11:09:19;;;;;;;6.65;4.72;;;10.60;99.90;;;;;;4996284;28;20460;-78
2023/01/02 11:11:54;;;;;;;9.48;5.38;;;10.60;99.90;;;;;;5009211;28;20156;-77
2023/01/02 11:14:23;;;;;;;6.20;5.43;;;10.50;99.90;;;;;;5011390;28;20086;-76
2023/01/02 11:16:50;;;;;;;4.68;3.70;;;10.50;99.90;;;;;;4997825;28;20076;-78
2023/01/02 11:19:20;;;;;;;3.65;3.40;;;10.40;99.90;;;;;;5021243;28;20122;-78
2023/01/02 11:21:55;;;;;;;3.67;3.47;;;10.20;99.90;;;;;;5022723;28;20121;-77
2023/01/02 11:24:25;;;;;;;4.15;3.38;;;10.20;99.90;;;;;;4999710;28;20050;-78
2023/01/02 11:26:53;;;;;;;3.15;2.80;;;10.10;99.90;;;;;;5009668;28;20046;-78
2023/01/02 11:29:35;;;;;;;3.47;3.03;;;10.00;99.90;;;;;;5013117;28;20074;-76
2023/01/02 11:32:03;;;;;;;3.72;3.03;;;9.90;99.90;;;;;;4997934;28;20585;-78
2023/01/02 11:34:39;;;;;;;3.47;3.17;;;9.80;99.90;;;;;;5006637;28;20054;-78
2023/01/02 11:37:15;;;;;;;5.03;4.30;;;9.80;99.90;;;;;;5000509;28;20113;-77
2023/01/02 11:39:55;;;;;;;4.82;4.28;;;9.90;99.90;;;;;;4998109;28;20049;-77
2023/01/02 11:45:28;;;;;;;4.97;4.47;;;9.90;99.90;;;;;;5002013;28;20112;-78
2023/01/02 11:48:08;;;;;;;6.78;5.25;;;9.80;99.90;;;;;;4989934;28;20042;-78
2023/01/02 11:50:37;;;;;;;5.85;4.20;;;9.80;99.90;;;;;;4997761;28;20461;-77
2023/01/02 11:53:18;;;;;;;6.13;5.10;;;9.80;99.90;;;;;;5009374;28;20357;-77
2023/01/02 11:55:52;;;;;;;6.00;5.35;;;9.80;99.90;;;;;;4976957;28;20048;-78
2023/01/02 11:58:49;;;;;;;9.90;5.50;;;9.90;99.90;;;;;;5000975;28;20369;-77
2023/01/02 12:01:31;;;;;;;7.07;5.78;;;9.90;99.90;;;;;;5024724;28;20197;-78
2023/01/02 12:04:07;;;;;;;7.80;6.50;;;9.80;99.90;;;;;;4999972;28;20520;-77
2023/01/02 12:06:48;;;;;;;9.52;6.90;;;9.90;99.90;;;;;;4983149;28;20101;-77
2023/01/02 12:09:37;;;;;;;16.80;8.52;;;9.80;99.90;;;;;;5000041;28;20057;-77
2023/01/02 12:12:19;;;;;;;9.57;7.82;;;9.80;99.90;;;;;;5001420;28;20056;-77
2023/01/02 12:15:03;;;;;;;13.23;8.80;;;9.90;99.90;;;;;;5000175;28;20104;-78
2023/01/02 12:17:50;;;;;;;14.80;9.48;;;9.90;99.90;;;;;;5002457;28;20051;-77
2023/01/02 12:20:21;;;;;;;12.32;8.68;;;9.80;99.90;;;;;;5010172;28;20084;-78
2023/01/02 12:23:27;;;;;;;13.85;9.63;;;9.80;99.90;;;;;;4989081;28;20050;-78
2023/01/02 12:26:09;;;;;;;13.88;9.25;;;9.80;99.90;;;;;;4983161;28;20125;-77
2023/01/02 12:28:42;;;;;;;14.30;10.68;;;9.80;99.90;;;;;;5026593;28;20136;-79
2023/01/02 12:31:21;;;;;;;13.40;10.95;;;9.80;99.90;;;;;;5002786;28;20194;-79
2023/01/02 12:34:10;;;;;;;14.30;11.02;;;9.70;99.90;;;;;;4977057;28;20049;-79
2023/01/02 12:37:06;;;;;;;21.08;15.77;;;9.80;99.90;;;;;;4999171;28;20211;-79
2023/01/02 12:39:42;;;;;;;;;;;9.80;99.90;;;;;;4973050;28;20129;-77
2023/01/02 12:42:21;;;;;;;10.30;8.55;;;9.80;99.90;;;;;;4987774;28;19928;-77
2023/01/02 12:44:58;;;;;;;11.63;9.10;;;9.70;99.90;;;;;;4984850;28;20153;-78
2023/01/02 12:47:37;;;;;;;11.90;8.90;;;9.80;99.90;;;;;;5020786;28;20073;-77
2023/01/02 12:50:10;;;;;;;9.38;7.43;;;9.70;99.90;;;;;;5039808;28;20069;-77
2023/01/02 12:52:55;;;;;;;9.23;7.55;;;9.70;99.90;;;;;;4993173;28;20641;-77
2023/01/02 12:55:34;;;;;;;9.07;7.73;;;9.60;99.90;;;;;;5008253;28;20045;-77
2023/01/02 12:58:19;;;;;;;10.63;9.20;;;9.70;99.90;;;;;;5028519;28;20562;-76
2023/01/02 13:01:01;;;;;;;10.60;9.23;;;9.70;99.90;;;;;;5035029;28;20098;-76